sensor_id;sensor_type;location;lat;lon;timestamp;P1;durP1;ratioP1;P2;durP2;ratioP2
38130;SDS011;23947;51.894;4.622;2022-08-24T00:00:32;2.85;;;0.75;;
38130;SDS011;23947;51.894;4.622;2022-08-24T00:02:59;6.60;;;0.73;;
38130;SDS011;23947;51.894;4.622;2022-08-24T00:05:24;5.93;;;0.90;;
38130;SDS011;23947;51.894;4.622;2022-08-24T00:07:50;3.47;;;1.20;;
38130;SDS011;23947;51.894;4.622;2022-08-24T00:10:16;2.33;;;0.80;;
38130;SDS011;23947;51.894;4.622;2022-08-24T00:12:44;6.22;;;1.05;;
38130;SDS011;23947;51.894;4.622;2022-08-24T00:15:11;3.70;;;0.80;;
38130;SDS011;23947;51.894;4.622;2022-08-24T00:17:39;3.38;;;1.10;;
38130;SDS011;23947;51.894;4.622;2022-08-24T00:20:07;2.15;;;0.80;;
38130;SDS011;23947;51.894;4.622;2022-08-24T00:22:34;3.60;;;0.90;;
38130;SDS011;23947;51.894;4.622;2022-08-24T00:25:00;3.47;;;0.90;;
38130;SDS011;23947;51.894;4.622;2022-08-24T00:27:25;3.40;;;0.70;;
38130;SDS011;23947;51.894;4.622;2022-08-24T00:29:51;3.78;;;0.80;;
38130;SDS011;23947;51.894;4.622;2022-08-24T00:32:17;2.72;;;0.73;;
38130;SDS011;23947;51.894;4.622;2022-08-24T00:34:43;3.28;;;0.75;;
38130;SDS011;23947;51.894;4.622;2022-08-24T00:37:09;3.97;;;0.70;;
38130;SDS011;23947;51.894;4.622;2022-08-24T00:39:34;4.18;;;0.90;;
38130;SDS011;23947;51.894;4.622;2022-08-24T00:42:00;2.30;;;0.60;;
38130;SDS011;23947;51.894;4.622;2022-08-24T00:44:26;3.03;;;0.60;;
38130;SDS011;23947;51.894;4.622;2022-08-24T00:46:56;3.58;;;0.77;;
38130;SDS011;23947;51.894;4.622;2022-08-24T00:49:32;2.30;;;0.57;;
38130;SDS011;23947;51.894;4.622;2022-08-24T00:54:32;4.32;;;0.82;;
38130;SDS011;23947;51.894;4.622;2022-08-24T00:57:03;4.95;;;0.60;;
38130;SDS011;23947;51.894;4.622;2022-08-24T00:59:37;3.42;;;0.75;;
38130;SDS011;23947;51.894;4.622;2022-08-24T01:02:08;5.25;;;0.70;;
38130;SDS011;23947;51.894;4.622;2022-08-24T01:04:47;1.98;;;0.50;;
38130;SDS011;23947;51.894;4.622;2022-08-24T01:07:17;3.30;;;0.50;;
38130;SDS011;23947;51.894;4.622;2022-08-24T01:09:46;2.33;;;0.55;;
38130;SDS011;23947;51.894;4.622;2022-08-24T01:12:13;4.05;;;0.77;;
38130;SDS011;23947;51.894;4.622;2022-08-24T01:14:40;2.00;;;0.70;;
38130;SDS011;23947;51.894;4.622;2022-08-24T01:17:07;4.00;;;0.82;;
38130;SDS011;23947;51.894;4.622;2022-08-24T01:19:53;4.75;;;1.00;;
38130;SDS011;23947;51.894;4.622;2022-08-24T01:24:56;4.88;;;1.02;;
38130;SDS011;23947;51.894;4.622;2022-08-24T01:27:23;3.92;;;0.95;;
38130;SDS011;23947;51.894;4.622;2022-08-24T01:29:49;5.78;;;1.15;;
38130;SDS011;23947;51.894;4.622;2022-08-24T01:32:17;3.22;;;1.05;;
38130;SDS011;23947;51.894;4.622;2022-08-24T01:34:46;4.93;;;1.48;;
38130;SDS011;23947;51.894;4.622;2022-08-24T01:37:12;5.53;;;1.48;;
38130;SDS011;23947;51.894;4.622;2022-08-24T01:39:39;5.75;;;2.20;;
38130;SDS011;23947;51.894;4.622;2022-08-24T01:42:08;5.15;;;2.08;;
38130;SDS011;23947;51.894;4.622;2022-08-24T01:44:34;7.90;;;2.13;;
38130;SDS011;23947;51.894;4.622;2022-08-24T01:47:02;6.28;;;2.35;;
38130;SDS011;23947;51.894;4.622;2022-08-24T01:51:56;7.00;;;3.15;;
38130;SDS011;23947;51.894;4.622;2022-08-24T01:54:22;5.53;;;2.40;;
38130;SDS011;23947;51.894;4.622;2022-08-24T01:56:49;6.78;;;2.28;;
38130;SDS011;23947;51.894;4.622;2022-08-24T01:59:15;5.72;;;1.95;;
38130;SDS011;23947;51.894;4.622;2022-08-24T02:01:44;5.65;;;1.70;;
38130;SDS011;23947;51.894;4.622;2022-08-24T02:04:13;5.07;;;2.03;;
38130;SDS011;23947;51.894;4.622;2022-08-24T02:06:39;5.85;;;1.40;;
38130;SDS011;23947;51.894;4.622;2022-08-24T02:09:05;4.80;;;1.60;;
38130;SDS011;23947;51.894;4.622;2022-08-24T02:11:31;6.72;;;2.25;;
38130;SDS011;23947;51.894;4.622;2022-08-24T02:13:57;14.05;;;9.10;;
38130;SDS011;23947;51.894;4.622;2022-08-24T02:16:24;17.50;;;10.68;;
38130;SDS011;23947;51.894;4.622;2022-08-24T02:18:51;12.25;;;9.50;;
38130;SDS011;23947;51.894;4.622;2022-08-24T02:21:17;12.88;;;9.57;;
38130;SDS011;23947;51.894;4.622;2022-08-24T02:23:42;13.07;;;8.95;;
38130;SDS011;23947;51.894;4.622;2022-08-24T02:26:08;12.55;;;8.57;;
38130;SDS011;23947;51.894;4.622;2022-08-24T02:28:35;13.70;;;9.23;;
38130;SDS011;23947;51.894;4.622;2022-08-24T02:31:01;12.55;;;9.40;;
38130;SDS011;23947;51.894;4.622;2022-08-24T02:33:30;12.35;;;8.70;;
38130;SDS011;23947;51.894;4.622;2022-08-24T02:35:56;12.70;;;9.00;;
38130;SDS011;23947;51.894;4.622;2022-08-24T02:38:21;19.65;;;10.43;;
38130;SDS011;23947;51.894;4.622;2022-08-24T02:40:47;13.93;;;10.60;;
38130;SDS011;23947;51.894;4.622;2022-08-24T02:43:13;14.18;;;9.48;;
38130;SDS011;23947;51.894;4.622;2022-08-24T02:45:40;12.10;;;8.00;;
38130;SDS011;23947;51.894;4.622;2022-08-24T02:50:37;12.80;;;7.22;;
38130;SDS011;23947;51.894;4.622;2022-08-24T02:53:03;9.55;;;7.10;;
38130;SDS011;23947;51.894;4.622;2022-08-24T02:55:29;9.57;;;5.70;;
38130;SDS011;23947;51.894;4.622;2022-08-24T02:57:54;10.00;;;5.95;;
38130;SDS011;23947;51.894;4.622;2022-08-24T03:00:20;8.15;;;4.05;;
38130;SDS011;23947;51.894;4.622;2022-08-24T03:02:46;7.45;;;3.63;;
38130;SDS011;23947;51.894;4.622;2022-08-24T03:05:13;8.05;;;3.97;;
38130;SDS011;23947;51.894;4.622;2022-08-24T03:07:39;8.27;;;3.92;;
38130;SDS011;23947;51.894;4.622;2022-08-24T03:10:05;6.10;;;3.80;;
38130;SDS011;23947;51.894;4.622;2022-08-24T03:12:31;6.47;;;3.42;;
38130;SDS011;23947;51.894;4.622;2022-08-24T03:14:58;6.93;;;2.72;;
38130;SDS011;23947;51.894;4.622;2022-08-24T03:17:26;5.85;;;2.38;;
38130;SDS011;23947;51.894;4.622;2022-08-24T03:19:55;6.32;;;2.38;;
38130;SDS011;23947;51.894;4.622;2022-08-24T03:22:21;4.97;;;2.28;;
38130;SDS011;23947;51.894;4.622;2022-08-24T03:24:47;4.65;;;2.28;;
38130;SDS011;23947;51.894;4.622;2022-08-24T03:27:13;6.10;;;2.50;;
38130;SDS011;23947;51.894;4.622;2022-08-24T03:29:39;6.43;;;2.33;;
38130;SDS011;23947;51.894;4.622;2022-08-24T03:32:05;8.55;;;3.00;;
38130;SDS011;23947;51.894;4.622;2022-08-24T03:34:30;9.00;;;4.40;;
38130;SDS011;23947;51.894;4.622;2022-08-24T03:36:56;9.93;;;5.75;;
38130;SDS011;23947;51.894;4.622;2022-08-24T03:39:22;11.30;;;6.82;;
38130;SDS011;23947;51.894;4.622;2022-08-24T03:41:47;10.88;;;7.53;;
38130;SDS011;23947;51.894;4.622;2022-08-24T03:44:13;10.75;;;7.25;;
38130;SDS011;23947;51.894;4.622;2022-08-24T03:46:39;10.45;;;6.35;;
38130;SDS011;23947;51.894;4.622;2022-08-24T03:49:06;9.23;;;6.53;;
38130;SDS011;23947;51.894;4.622;2022-08-24T03:51:34;10.48;;;7.20;;
38130;SDS011;23947;51.894;4.622;2022-08-24T03:54:01;13.25;;;7.25;;
38130;SDS011;23947;51.894;4.622;2022-08-24T03:56:28;11.02;;;8.20;;
38130;SDS011;23947;51.894;4.622;2022-08-24T03:58:54;13.63;;;8.35;;
38130;SDS011;23947;51.894;4.622;2022-08-24T04:01:19;11.52;;;7.68;;
38130;SDS011;23947;51.894;4.622;2022-08-24T04:03:46;13.50;;;8.25;;
38130;SDS011;23947;51.894;4.622;2022-08-24T04:06:13;16.13;;;7.63;;
38130;SDS011;23947;51.894;4.622;2022-08-24T04:08:40;15.38;;;9.65;;
38130;SDS011;23947;51.894;4.622;2022-08-24T04:11:10;15.25;;;9.18;;
38130;SDS011;23947;51.894;4.622;2022-08-24T04:13:37;14.30;;;9.05;;
38130;SDS011;23947;51.894;4.622;2022-08-24T04:16:04;15.38;;;9.45;;
38130;SDS011;23947;51.894;4.622;2022-08-24T04:18:34;16.88;;;10.77;;
38130;SDS011;23947;51.894;4.622;2022-08-24T04:21:00;15.95;;;9.38;;
38130;SDS011;23947;51.894;4.622;2022-08-24T04:23:26;15.35;;;10.73;;
38130;SDS011;23947;51.894;4.622;2022-08-24T04:25:52;15.40;;;11.38;;
38130;SDS011;23947;51.894;4.622;2022-08-24T04:28:18;15.50;;;11.52;;
38130;SDS011;23947;51.894;4.622;2022-08-24T04:30:45;20.48;;;11.25;;
38130;SDS011;23947;51.894;4.622;2022-08-24T04:33:15;18.38;;;10.55;;
38130;SDS011;23947;51.894;4.622;2022-08-24T04:35:46;17.38;;;11.88;;
38130;SDS011;23947;51.894;4.622;2022-08-24T04:38:13;17.50;;;12.80;;
38130;SDS011;23947;51.894;4.622;2022-08-24T04:40:41;20.05;;;13.63;;
38130;SDS011;23947;51.894;4.622;2022-08-24T04:43:08;19.77;;;13.70;;
38130;SDS011;23947;51.894;4.622;2022-08-24T04:45:39;23.85;;;15.07;;
38130;SDS011;23947;51.894;4.622;2022-08-24T04:48:06;19.88;;;14.70;;
38130;SDS011;23947;51.894;4.622;2022-08-24T04:50:36;23.98;;;15.10;;
38130;SDS011;23947;51.894;4.622;2022-08-24T04:53:03;24.08;;;15.25;;
38130;SDS011;23947;51.894;4.622;2022-08-24T04:55:30;22.02;;;14.85;;
38130;SDS011;23947;51.894;4.622;2022-08-24T04:57:56;20.88;;;14.98;;
38130;SDS011;23947;51.894;4.622;2022-08-24T05:00:21;53.47;;;15.55;;
38130;SDS011;23947;51.894;4.622;2022-08-24T05:02:47;1021.38;;;62.22;;
38130;SDS011;23947;51.894;4.622;2022-08-24T05:05:13;81.13;;;17.75;;
38130;SDS011;23947;51.894;4.622;2022-08-24T05:07:39;36.50;;;14.90;;
38130;SDS011;23947;51.894;4.622;2022-08-24T05:10:05;25.98;;;16.88;;
38130;SDS011;23947;51.894;4.622;2022-08-24T05:12:31;26.90;;;16.13;;
38130;SDS011;23947;51.894;4.622;2022-08-24T05:14:57;27.42;;;19.00;;
38130;SDS011;23947;51.894;4.622;2022-08-24T05:17:24;38.97;;;22.50;;
38130;SDS011;23947;51.894;4.622;2022-08-24T05:19:50;31.80;;;23.38;;
38130;SDS011;23947;51.894;4.622;2022-08-24T05:22:16;39.30;;;24.83;;
38130;SDS011;23947;51.894;4.622;2022-08-24T05:24:42;32.53;;;23.80;;
38130;SDS011;23947;51.894;4.622;2022-08-24T05:27:08;33.72;;;23.38;;
38130;SDS011;23947;51.894;4.622;2022-08-24T05:29:34;34.08;;;23.40;;
38130;SDS011;23947;51.894;4.622;2022-08-24T05:32:00;32.15;;;22.45;;
38130;SDS011;23947;51.894;4.622;2022-08-24T05:34:26;29.75;;;21.55;;
38130;SDS011;23947;51.894;4.622;2022-08-24T05:36:52;32.97;;;21.85;;
38130;SDS011;23947;51.894;4.622;2022-08-24T05:39:17;30.38;;;19.95;;
38130;SDS011;23947;51.894;4.622;2022-08-24T05:41:44;24.70;;;17.80;;
38130;SDS011;23947;51.894;4.622;2022-08-24T05:44:10;19.40;;;15.13;;
38130;SDS011;23947;51.894;4.622;2022-08-24T05:46:37;22.60;;;16.17;;
38130;SDS011;23947;51.894;4.622;2022-08-24T05:49:03;22.17;;;15.60;;
38130;SDS011;23947;51.894;4.622;2022-08-24T05:51:29;24.05;;;16.38;;
38130;SDS011;23947;51.894;4.622;2022-08-24T05:53:55;25.00;;;15.70;;
38130;SDS011;23947;51.894;4.622;2022-08-24T05:56:22;23.80;;;16.00;;
38130;SDS011;23947;51.894;4.622;2022-08-24T05:58:47;25.23;;;15.68;;
38130;SDS011;23947;51.894;4.622;2022-08-24T06:01:18;25.73;;;15.85;;
38130;SDS011;23947;51.894;4.622;2022-08-24T06:03:46;25.67;;;17.48;;
38130;SDS011;23947;51.894;4.622;2022-08-24T06:06:12;22.27;;;16.20;;
38130;SDS011;23947;51.894;4.622;2022-08-24T06:08:41;23.23;;;17.23;;
38130;SDS011;23947;51.894;4.622;2022-08-24T06:11:10;26.67;;;18.20;;
38130;SDS011;23947;51.894;4.622;2022-08-24T06:13:37;25.52;;;18.25;;
38130;SDS011;23947;51.894;4.622;2022-08-24T06:16:08;22.08;;;16.58;;
38130;SDS011;23947;51.894;4.622;2022-08-24T06:18:35;27.88;;;17.85;;
38130;SDS011;23947;51.894;4.622;2022-08-24T06:21:05;23.73;;;17.15;;
38130;SDS011;23947;51.894;4.622;2022-08-24T06:23:33;24.20;;;16.17;;
38130;SDS011;23947;51.894;4.622;2022-08-24T06:25:59;22.90;;;15.65;;
38130;SDS011;23947;51.894;4.622;2022-08-24T06:28:44;23.17;;;15.15;;
38130;SDS011;23947;51.894;4.622;2022-08-24T06:31:10;21.45;;;12.85;;
38130;SDS011;23947;51.894;4.622;2022-08-24T06:33:35;16.77;;;12.45;;
38130;SDS011;23947;51.894;4.622;2022-08-24T06:36:01;19.75;;;12.02;;
38130;SDS011;23947;51.894;4.622;2022-08-24T06:38:27;16.33;;;10.57;;
38130;SDS011;23947;51.894;4.622;2022-08-24T06:40:54;15.52;;;9.48;;
38130;SDS011;23947;51.894;4.622;2022-08-24T06:43:20;13.35;;;7.72;;
38130;SDS011;23947;51.894;4.622;2022-08-24T06:45:46;13.10;;;6.05;;
38130;SDS011;23947;51.894;4.622;2022-08-24T06:48:12;11.25;;;6.15;;
38130;SDS011;23947;51.894;4.622;2022-08-24T06:50:38;9.23;;;5.45;;
38130;SDS011;23947;51.894;4.622;2022-08-24T06:53:04;8.13;;;3.90;;
38130;SDS011;23947;51.894;4.622;2022-08-24T06:55:29;9.02;;;3.63;;
38130;SDS011;23947;51.894;4.622;2022-08-24T06:57:56;9.20;;;4.47;;
38130;SDS011;23947;51.894;4.622;2022-08-24T07:00:22;7.82;;;4.28;;
38130;SDS011;23947;51.894;4.622;2022-08-24T07:02:49;7.32;;;3.28;;
38130;SDS011;23947;51.894;4.622;2022-08-24T07:05:15;5.85;;;2.53;;
38130;SDS011;23947;51.894;4.622;2022-08-24T07:07:41;7.80;;;2.40;;
38130;SDS011;23947;51.894;4.622;2022-08-24T07:10:06;6.22;;;2.08;;
38130;SDS011;23947;51.894;4.622;2022-08-24T07:12:33;7.45;;;2.58;;
38130;SDS011;23947;51.894;4.622;2022-08-24T07:15:00;7.05;;;1.88;;
38130;SDS011;23947;51.894;4.622;2022-08-24T07:17:27;8.23;;;2.33;;
38130;SDS011;23947;51.894;4.622;2022-08-24T07:19:52;5.78;;;2.15;;
38130;SDS011;23947;51.894;4.622;2022-08-24T07:22:18;5.30;;;3.03;;
38130;SDS011;23947;51.894;4.622;2022-08-24T07:24:44;5.68;;;2.40;;
38130;SDS011;23947;51.894;4.622;2022-08-24T07:27:10;9.82;;;3.38;;
38130;SDS011;23947;51.894;4.622;2022-08-24T07:29:38;8.07;;;3.83;;
38130;SDS011;23947;51.894;4.622;2022-08-24T07:32:04;10.43;;;4.68;;
38130;SDS011;23947;51.894;4.622;2022-08-24T07:34:30;9.73;;;5.20;;
38130;SDS011;23947;51.894;4.622;2022-08-24T07:36:56;8.30;;;5.30;;
38130;SDS011;23947;51.894;4.622;2022-08-24T07:39:24;11.93;;;4.47;;
38130;SDS011;23947;51.894;4.622;2022-08-24T07:41:50;9.00;;;4.75;;
38130;SDS011;23947;51.894;4.622;2022-08-24T07:44:16;10.23;;;4.40;;
38130;SDS011;23947;51.894;4.622;2022-08-24T07:46:41;8.93;;;4.20;;
38130;SDS011;23947;51.894;4.622;2022-08-24T07:49:08;8.00;;;4.28;;
38130;SDS011;23947;51.894;4.622;2022-08-24T07:51:35;9.57;;;4.57;;
38130;SDS011;23947;51.894;4.622;2022-08-24T07:54:02;8.48;;;4.43;;
38130;SDS011;23947;51.894;4.622;2022-08-24T07:56:28;9.73;;;4.45;;
38130;SDS011;23947;51.894;4.622;2022-08-24T07:58:54;8.90;;;4.40;;
38130;SDS011;23947;51.894;4.622;2022-08-24T08:01:20;8.27;;;4.70;;
38130;SDS011;23947;51.894;4.622;2022-08-24T08:03:46;9.50;;;4.00;;
38130;SDS011;23947;51.894;4.622;2022-08-24T08:06:12;7.00;;;3.75;;
38130;SDS011;23947;51.894;4.622;2022-08-24T08:08:38;7.07;;;3.55;;
38130;SDS011;23947;51.894;4.622;2022-08-24T08:11:05;9.27;;;3.08;;
38130;SDS011;23947;51.894;4.622;2022-08-24T08:13:32;7.68;;;4.45;;
38130;SDS011;23947;51.894;4.622;2022-08-24T08:15:59;7.40;;;3.40;;
38130;SDS011;23947;51.894;4.622;2022-08-24T08:18:25;6.70;;;2.78;;
38130;SDS011;23947;51.894;4.622;2022-08-24T08:20:51;6.00;;;2.65;;
38130;SDS011;23947;51.894;4.622;2022-08-24T08:23:17;11.15;;;2.80;;
38130;SDS011;23947;51.894;4.622;2022-08-24T08:26:02;6.85;;;2.50;;
38130;SDS011;23947;51.894;4.622;2022-08-24T08:28:29;5.70;;;2.90;;
38130;SDS011;23947;51.894;4.622;2022-08-24T08:31:00;8.35;;;2.90;;
38130;SDS011;23947;51.894;4.622;2022-08-24T08:33:26;4.80;;;1.80;;
38130;SDS011;23947;51.894;4.622;2022-08-24T08:35:55;8.93;;;2.30;;
38130;SDS011;23947;51.894;4.622;2022-08-24T08:38:34;7.60;;;2.00;;
38130;SDS011;23947;51.894;4.622;2022-08-24T08:41:12;7.00;;;2.03;;
38130;SDS011;23947;51.894;4.622;2022-08-24T08:44:05;6.72;;;1.50;;
38130;SDS011;23947;51.894;4.622;2022-08-24T09:03:30;4.15;;;1.50;;
38130;SDS011;23947;51.894;4.622;2022-08-24T09:06:19;4.63;;;1.38;;
38130;SDS011;23947;51.894;4.622;2022-08-24T09:22:21;8.55;;;2.00;;
38130;SDS011;23947;51.894;4.622;2022-08-24T09:52:33;2.53;;;0.50;;
38130;SDS011;23947;51.894;4.622;2022-08-24T09:55:15;2.08;;;0.57;;
38130;SDS011;23947;51.894;4.622;2022-08-24T09:57:57;5.28;;;0.90;;
38130;SDS011;23947;51.894;4.622;2022-08-24T10:15:15;3.50;;;0.40;;
38130;SDS011;23947;51.894;4.622;2022-08-24T10:23:31;6.20;;;1.25;;
38130;SDS011;23947;51.894;4.622;2022-08-24T10:32:00;4.82;;;0.90;;
38130;SDS011;23947;51.894;4.622;2022-08-24T10:43:25;5.82;;;0.80;;
38130;SDS011;23947;51.894;4.622;2022-08-24T10:54:20;2.15;;;0.60;;
38130;SDS011;23947;51.894;4.622;2022-08-24T10:56:54;3.63;;;0.77;;
38130;SDS011;23947;51.894;4.622;2022-08-24T11:02:06;2.70;;;0.70;;
38130;SDS011;23947;51.894;4.622;2022-08-24T11:04:59;8.00;;;0.70;;
38130;SDS011;23947;51.894;4.622;2022-08-24T11:07:27;3.20;;;0.60;;
38130;SDS011;23947;51.894;4.622;2022-08-24T11:09:54;2.60;;;0.50;;
38130;SDS011;23947;51.894;4.622;2022-08-24T11:12:30;3.30;;;0.50;;
38130;SDS011;23947;51.894;4.622;2022-08-24T11:14:57;3.60;;;0.77;;
38130;SDS011;23947;51.894;4.622;2022-08-24T11:17:26;3.72;;;0.60;;
38130;SDS011;23947;51.894;4.622;2022-08-24T11:19:53;2.45;;;0.60;;
38130;SDS011;23947;51.894;4.622;2022-08-24T11:25:00;4.20;;;0.60;;
38130;SDS011;23947;51.894;4.622;2022-08-24T11:27:50;3.60;;;0.60;;
38130;SDS011;23947;51.894;4.622;2022-08-24T11:30:26;6.07;;;0.70;;
38130;SDS011;23947;51.894;4.622;2022-08-24T11:33:00;1.35;;;0.50;;
38130;SDS011;23947;51.894;4.622;2022-08-24T11:38:05;5.07;;;1.17;;
38130;SDS011;23947;51.894;4.622;2022-08-24T11:40:54;3.78;;;0.90;;
38130;SDS011;23947;51.894;4.622;2022-08-24T11:49:09;6.90;;;1.52;;
38130;SDS011;23947;51.894;4.622;2022-08-24T11:52:02;3.42;;;1.02;;
38130;SDS011;23947;51.894;4.622;2022-08-24T11:57:46;8.85;;;1.10;;
38130;SDS011;23947;51.894;4.622;2022-08-24T12:00:24;7.28;;;1.73;;
38130;SDS011;23947;51.894;4.622;2022-08-24T12:08:38;3.05;;;0.60;;
38130;SDS011;23947;51.894;4.622;2022-08-24T12:14:20;5.93;;;0.80;;
38130;SDS011;23947;51.894;4.622;2022-08-24T12:16:56;3.13;;;0.70;;
38130;SDS011;23947;51.894;4.622;2022-08-24T12:19:28;3.97;;;0.50;;
38130;SDS011;23947;51.894;4.622;2022-08-24T12:21:59;4.82;;;1.00;;
38130;SDS011;23947;51.894;4.622;2022-08-24T12:29:41;5.47;;;0.90;;
38130;SDS011;23947;51.894;4.622;2022-08-24T12:35:03;4.38;;;0.60;;
38130;SDS011;23947;51.894;4.622;2022-08-24T12:37:45;6.53;;;1.00;;
38130;SDS011;23947;51.894;4.622;2022-08-24T12:40:39;8.48;;;1.15;;
38130;SDS011;23947;51.894;4.622;2022-08-24T12:43:25;8.00;;;1.20;;
38130;SDS011;23947;51.894;4.622;2022-08-24T12:46:02;5.40;;;1.02;;
38130;SDS011;23947;51.894;4.622;2022-08-24T12:59:31;4.13;;;0.80;;
38130;SDS011;23947;51.894;4.622;2022-08-24T13:18:00;5.22;;;0.65;;
38130;SDS011;23947;51.894;4.622;2022-08-24T13:33:43;4.60;;;0.80;;
38130;SDS011;23947;51.894;4.622;2022-08-24T13:47:49;5.15;;;0.90;;
38130;SDS011;23947;51.894;4.622;2022-08-24T13:50:27;2.30;;;0.60;;
38130;SDS011;23947;51.894;4.622;2022-08-24T13:55:47;3.53;;;0.70;;
38130;SDS011;23947;51.894;4.622;2022-08-24T14:01:17;3.63;;;0.50;;
38130;SDS011;23947;51.894;4.622;2022-08-24T14:12:17;7.63;;;0.98;;
38130;SDS011;23947;51.894;4.622;2022-08-24T14:31:39;4.90;;;0.45;;
38130;SDS011;23947;51.894;4.622;2022-08-24T14:48:16;2.13;;;0.50;;
38130;SDS011;23947;51.894;4.622;2022-08-24T15:05:02;2.17;;;0.50;;
38130;SDS011;23947;51.894;4.622;2022-08-24T15:07:41;2.35;;;0.47;;
38130;SDS011;23947;51.894;4.622;2022-08-24T15:10:26;2.72;;;0.60;;
38130;SDS011;23947;51.894;4.622;2022-08-24T15:12:58;3.60;;;0.50;;
38130;SDS011;23947;51.894;4.622;2022-08-24T15:15:33;3.83;;;0.40;;
38130;SDS011;23947;51.894;4.622;2022-08-24T15:18:05;4.15;;;0.40;;
38130;SDS011;23947;51.894;4.622;2022-08-24T15:20:48;2.03;;;0.43;;
38130;SDS011;23947;51.894;4.622;2022-08-24T15:26:08;3.17;;;0.30;;
38130;SDS011;23947;51.894;4.622;2022-08-24T15:31:17;3.08;;;0.47;;
38130;SDS011;23947;51.894;4.622;2022-08-24T15:36:17;4.65;;;0.60;;
38130;SDS011;23947;51.894;4.622;2022-08-24T15:38:43;4.55;;;0.50;;
38130;SDS011;23947;51.894;4.622;2022-08-24T15:41:20;3.47;;;0.60;;
38130;SDS011;23947;51.894;4.622;2022-08-24T15:44:02;5.47;;;0.60;;
38130;SDS011;23947;51.894;4.622;2022-08-24T15:46:39;2.78;;;0.50;;
38130;SDS011;23947;51.894;4.622;2022-08-24T15:49:20;2.45;;;0.60;;
38130;SDS011;23947;51.894;4.622;2022-08-24T15:51:53;5.18;;;1.50;;
38130;SDS011;23947;51.894;4.622;2022-08-24T15:59:31;5.22;;;1.75;;
38130;SDS011;23947;51.894;4.622;2022-08-24T16:12:52;5.25;;;0.50;;
38130;SDS011;23947;51.894;4.622;2022-08-24T16:15:29;2.30;;;0.50;;
38130;SDS011;23947;51.894;4.622;2022-08-24T16:17:56;2.33;;;1.00;;
38130;SDS011;23947;51.894;4.622;2022-08-24T16:23:00;4.00;;;1.38;;
38130;SDS011;23947;51.894;4.622;2022-08-24T16:26:19;2.33;;;0.50;;
38130;SDS011;23947;51.894;4.622;2022-08-24T16:32:12;4.65;;;0.60;;
38130;SDS011;23947;51.894;4.622;2022-08-24T16:34:40;2.33;;;0.70;;
38130;SDS011;23947;51.894;4.622;2022-08-24T16:37:25;4.43;;;0.70;;
38130;SDS011;23947;51.894;4.622;2022-08-24T16:39:50;3.95;;;0.63;;
38130;SDS011;23947;51.894;4.622;2022-08-24T16:42:28;5.70;;;0.80;;
38130;SDS011;23947;51.894;4.622;2022-08-24T16:44:55;4.20;;;0.60;;
38130;SDS011;23947;51.894;4.622;2022-08-24T16:47:22;7.63;;;0.90;;
38130;SDS011;23947;51.894;4.622;2022-08-24T16:49:58;4.03;;;0.90;;
38130;SDS011;23947;51.894;4.622;2022-08-24T16:52:29;4.72;;;1.05;;
38130;SDS011;23947;51.894;4.622;2022-08-24T16:54:55;7.32;;;0.75;;
38130;SDS011;23947;51.894;4.622;2022-08-24T16:57:22;8.18;;;0.90;;
38130;SDS011;23947;51.894;4.622;2022-08-24T16:59:52;9.90;;;1.00;;
38130;SDS011;23947;51.894;4.622;2022-08-24T17:05:44;19.50;;;1.70;;
38130;SDS011;23947;51.894;4.622;2022-08-24T17:08:10;53.75;;;3.10;;
38130;SDS011;23947;51.894;4.622;2022-08-24T17:10:36;5.25;;;0.90;;
38130;SDS011;23947;51.894;4.622;2022-08-24T17:13:02;11.88;;;1.20;;
38130;SDS011;23947;51.894;4.622;2022-08-24T17:15:28;8.13;;;0.90;;
38130;SDS011;23947;51.894;4.622;2022-08-24T17:17:59;5.18;;;1.30;;
38130;SDS011;23947;51.894;4.622;2022-08-24T17:20:27;7.03;;;1.08;;
38130;SDS011;23947;51.894;4.622;2022-08-24T17:22:54;5.10;;;1.20;;
38130;SDS011;23947;51.894;4.622;2022-08-24T17:25:20;7.40;;;1.20;;
38130;SDS011;23947;51.894;4.622;2022-08-24T17:27:46;5.40;;;1.10;;
38130;SDS011;23947;51.894;4.622;2022-08-24T17:30:12;5.65;;;1.00;;
38130;SDS011;23947;51.894;4.622;2022-08-24T17:32:41;6.32;;;1.00;;
38130;SDS011;23947;51.894;4.622;2022-08-24T17:35:07;3.78;;;1.10;;
38130;SDS011;23947;51.894;4.622;2022-08-24T17:37:35;7.03;;;1.38;;
38130;SDS011;23947;51.894;4.622;2022-08-24T17:40:01;4.75;;;1.33;;
38130;SDS011;23947;51.894;4.622;2022-08-24T17:42:29;3.00;;;1.10;;
38130;SDS011;23947;51.894;4.622;2022-08-24T17:44:54;4.18;;;1.33;;
38130;SDS011;23947;51.894;4.622;2022-08-24T17:47:20;4.25;;;1.13;;
38130;SDS011;23947;51.894;4.622;2022-08-24T17:49:46;4.80;;;1.20;;
38130;SDS011;23947;51.894;4.622;2022-08-24T17:52:12;5.18;;;1.38;;
38130;SDS011;23947;51.894;4.622;2022-08-24T17:54:38;15.55;;;2.10;;
38130;SDS011;23947;51.894;4.622;2022-08-24T17:57:04;180.82;;;11.68;;
38130;SDS011;23947;51.894;4.622;2022-08-24T17:59:31;9.00;;;1.45;;
38130;SDS011;23947;51.894;4.622;2022-08-24T18:02:02;7.30;;;1.40;;
38130;SDS011;23947;51.894;4.622;2022-08-24T18:04:31;9.02;;;1.45;;
38130;SDS011;23947;51.894;4.622;2022-08-24T18:06:59;6.47;;;1.83;;
38130;SDS011;23947;51.894;4.622;2022-08-24T18:09:34;5.82;;;1.60;;
38130;SDS011;23947;51.894;4.622;2022-08-24T18:12:02;4.80;;;1.80;;
38130;SDS011;23947;51.894;4.622;2022-08-24T18:14:29;6.25;;;1.90;;
38130;SDS011;23947;51.894;4.622;2022-08-24T18:16:57;9.15;;;1.58;;
38130;SDS011;23947;51.894;4.622;2022-08-24T18:19:25;7.43;;;1.38;;
38130;SDS011;23947;51.894;4.622;2022-08-24T18:21:51;7.18;;;3.03;;
38130;SDS011;23947;51.894;4.622;2022-08-24T18:24:16;5.75;;;1.40;;
38130;SDS011;23947;51.894;4.622;2022-08-24T18:26:42;7.20;;;2.28;;
38130;SDS011;23947;51.894;4.622;2022-08-24T18:29:15;5.78;;;1.75;;
38130;SDS011;23947;51.894;4.622;2022-08-24T18:31:42;4.45;;;1.60;;
38130;SDS011;23947;51.894;4.622;2022-08-24T18:34:14;5.82;;;1.80;;
38130;SDS011;23947;51.894;4.622;2022-08-24T18:36:45;6.70;;;1.80;;
38130;SDS011;23947;51.894;4.622;2022-08-24T18:39:11;9.35;;;2.45;;
38130;SDS011;23947;51.894;4.622;2022-08-24T18:41:38;7.22;;;3.10;;
38130;SDS011;23947;51.894;4.622;2022-08-24T18:44:06;6.43;;;2.67;;
38130;SDS011;23947;51.894;4.622;2022-08-24T18:46:33;8.18;;;3.03;;
38130;SDS011;23947;51.894;4.622;2022-08-24T18:48:59;7.60;;;3.13;;
38130;SDS011;23947;51.894;4.622;2022-08-24T18:51:26;7.78;;;3.75;;
38130;SDS011;23947;51.894;4.622;2022-08-24T18:53:57;7.35;;;3.55;;
38130;SDS011;23947;51.894;4.622;2022-08-24T18:56:26;7.80;;;3.28;;
38130;SDS011;23947;51.894;4.622;2022-08-24T18:58:52;7.00;;;4.10;;
38130;SDS011;23947;51.894;4.622;2022-08-24T19:01:19;8.55;;;4.43;;
38130;SDS011;23947;51.894;4.622;2022-08-24T19:03:46;7.80;;;4.10;;
38130;SDS011;23947;51.894;4.622;2022-08-24T19:06:14;7.50;;;5.25;;
38130;SDS011;23947;51.894;4.622;2022-08-24T19:08:40;8.05;;;5.10;;
38130;SDS011;23947;51.894;4.622;2022-08-24T19:11:05;7.78;;;5.82;;
38130;SDS011;23947;51.894;4.622;2022-08-24T19:13:32;13.55;;;5.13;;
38130;SDS011;23947;51.894;4.622;2022-08-24T19:15:58;8.85;;;5.63;;
38130;SDS011;23947;51.894;4.622;2022-08-24T19:18:24;8.82;;;5.63;;
38130;SDS011;23947;51.894;4.622;2022-08-24T19:20:51;9.30;;;5.63;;
38130;SDS011;23947;51.894;4.622;2022-08-24T19:23:27;11.18;;;5.95;;
38130;SDS011;23947;51.894;4.622;2022-08-24T19:25:56;8.98;;;6.03;;
38130;SDS011;23947;51.894;4.622;2022-08-24T19:28:22;9.05;;;6.38;;
38130;SDS011;23947;51.894;4.622;2022-08-24T19:30:48;11.50;;;6.40;;
38130;SDS011;23947;51.894;4.622;2022-08-24T19:33:22;10.77;;;5.95;;
38130;SDS011;23947;51.894;4.622;2022-08-24T19:35:51;10.55;;;5.68;;
38130;SDS011;23947;51.894;4.622;2022-08-24T19:38:17;10.10;;;5.38;;
38130;SDS011;23947;51.894;4.622;2022-08-24T19:40:43;8.23;;;5.80;;